createdAt,value
2019-04-28T04:00:55.244Z,8.41
2019-04-28T04:01:59.793Z,8.27
2019-04-28T04:02:55.594Z,8.27
2019-04-28T04:03:55.754Z,8.27
2019-04-28T04:04:55.924Z,8.38
2019-04-28T04:05:56.093Z,8.34
2019-04-28T04:06:56.259Z,8.42
2019-04-28T04:07:56.428Z,8.38
2019-04-28T04:08:56.632Z,8.46
2019-04-28T04:09:56.782Z,8.38
2019-04-28T04:10:56.957Z,8.45
2019-04-28T04:11:57.110Z,8.37
2019-04-28T04:12:57.281Z,8.49
2019-04-28T04:13:57.450Z,8.42
2019-04-28T04:14:57.620Z,8.45
2019-04-28T04:15:57.787Z,8.41
2019-04-28T04:17:00.000Z,8.38
2019-04-28T04:18:01.174Z,8.31
2019-04-28T04:19:00.540Z,8.23
2019-04-28T04:20:01.589Z,8.27
2019-04-28T04:21:00.814Z,8.33
2019-04-28T04:22:00.354Z,8.33
2019-04-28T04:23:01.420Z,8.38
2019-04-28T04:24:01.006Z,8.31
2019-04-28T04:25:01.319Z,8.34
2019-04-28T04:26:01.589Z,8.28
2019-04-28T04:27:00.858Z,8.28
2019-04-28T04:28:03.241Z,8.28
2019-04-28T04:29:00.945Z,8.23
2019-04-28T04:30:01.540Z,8.36
2019-04-28T04:31:02.951Z,8.41
2019-04-28T04:32:11.609Z,8.37
2019-04-28T04:33:01.380Z,8.41
2019-04-28T04:34:03.319Z,8.51
2019-04-28T04:35:01.035Z,8.42
2019-04-28T04:36:01.717Z,8.46
2019-04-28T04:37:01.373Z,8.46
2019-04-28T04:38:01.544Z,8.44
2019-04-28T04:39:02.175Z,8.38
2019-04-28T04:40:01.949Z,8.49
2019-04-28T04:41:02.064Z,8.48
2019-04-28T04:42:02.237Z,8.52
2019-04-28T04:43:02.409Z,8.42
2019-04-28T04:44:02.587Z,8.24
2019-04-28T04:45:02.749Z,8.24
2019-04-28T04:46:02.920Z,8.27
2019-04-28T04:47:03.104Z,8.24
2019-04-28T04:48:03.271Z,8.31
2019-04-28T04:49:03.444Z,8.34
2019-04-28T04:50:03.613Z,8.42
2019-04-28T04:51:03.783Z,8.48
2019-04-28T04:52:03.980Z,8.42
2019-04-28T04:53:04.139Z,8.51
2019-04-28T04:54:04.313Z,8.46
2019-04-28T04:55:04.480Z,8.42
2019-04-28T04:56:04.650Z,8.37
2019-04-28T04:57:04.819Z,8.31
2019-04-28T04:58:04.989Z,8.44
2019-04-28T04:59:05.161Z,8.38
2019-04-28T05:00:05.334Z,8.46
2019-04-28T05:01:05.510Z,8.37
2019-04-28T05:02:05.686Z,8.49
2019-04-28T05:03:05.854Z,8.56
2019-04-28T05:04:06.022Z,8.60
2019-04-28T05:05:06.197Z,8.56
2019-04-28T05:06:06.364Z,8.63
2019-04-28T05:07:06.534Z,8.56
2019-04-28T05:08:06.706Z,8.55
2019-04-28T05:09:06.872Z,8.61
2019-04-28T05:10:07.046Z,8.60
2019-04-28T05:11:07.215Z,8.63
2019-04-28T05:12:07.386Z,8.69
2019-04-28T05:13:07.555Z,8.63
2019-04-28T05:14:11.321Z,8.60
2019-04-28T05:15:07.900Z,8.66
2019-04-28T05:16:09.613Z,8.64
2019-04-28T05:17:08.234Z,8.71
2019-04-28T05:18:10.068Z,8.67
2019-04-28T05:19:10.112Z,8.69
2019-04-28T05:20:09.879Z,8.79
2019-04-28T05:21:10.571Z,8.85
2019-04-28T05:22:10.181Z,8.94
2019-04-28T05:23:09.640Z,8.97
2019-04-28T05:24:15.800Z,8.81
2019-04-28T05:25:10.319Z,8.92
2019-04-28T05:26:11.327Z,8.81
2019-04-28T05:27:09.968Z,8.89
2019-04-28T05:28:10.482Z,9.02
2019-04-28T05:29:10.306Z,9.04
2019-04-28T05:30:13.743Z,9.14
2019-04-28T05:31:13.852Z,9.21
2019-04-28T05:32:10.951Z,9.26
2019-04-28T05:33:10.992Z,9.36
2019-04-28T05:34:11.635Z,9.21
2019-04-28T05:35:11.353Z,9.25
2019-04-28T05:36:11.771Z,9.10
2019-04-28T05:37:11.694Z,9.08
2019-04-28T05:38:11.865Z,9.11
2019-04-28T05:39:12.038Z,9.34
2019-04-28T05:40:12.221Z,9.25
2019-04-28T05:41:12.380Z,9.21
2019-04-28T05:42:12.549Z,9.19
2019-04-28T05:43:12.725Z,9.10
2019-04-28T05:44:12.895Z,9.19
2019-04-28T05:45:13.065Z,9.21
2019-04-28T05:46:13.243Z,9.25
2019-04-28T05:47:13.405Z,9.29
2019-04-28T05:48:13.573Z,9.40
2019-04-28T05:49:13.749Z,9.34
2019-04-28T05:50:13.917Z,9.37
2019-04-28T05:51:14.085Z,9.44
2019-04-28T05:52:14.257Z,9.43
2019-04-28T05:53:14.428Z,9.44
2019-04-28T05:54:14.594Z,9.54
2019-04-28T05:55:14.766Z,9.59
2019-04-28T05:56:14.942Z,9.54
2019-04-28T05:57:15.111Z,9.55
2019-04-28T05:58:15.285Z,9.59
2019-04-28T05:59:15.463Z,9.73
2019-04-28T06:00:15.630Z,9.62
2019-04-28T06:01:15.798Z,9.51
2019-04-28T06:02:16.013Z,9.55
2019-04-28T06:03:16.156Z,9.59
2019-04-28T06:04:16.328Z,9.77
2019-04-28T06:05:16.499Z,9.77
2019-04-28T06:06:16.671Z,9.69
2019-04-28T06:07:16.844Z,9.79
2019-04-28T06:08:17.027Z,9.86
2019-04-28T06:09:17.201Z,9.91
2019-04-28T06:10:20.032Z,9.86
2019-04-28T06:11:17.560Z,10.02
2019-04-28T06:12:17.730Z,10.05
2019-04-28T06:13:17.900Z,10.16
2019-04-28T06:14:19.787Z,10.26
2019-04-28T06:15:18.236Z,10.25
2019-04-28T06:16:19.598Z,10.19
2019-04-28T06:17:20.421Z,10.30
2019-04-28T06:18:20.496Z,10.41
2019-04-28T06:19:20.202Z,10.51
2019-04-28T06:20:20.118Z,10.51
2019-04-28T06:21:19.288Z,10.68
2019-04-28T06:22:19.460Z,10.59
2019-04-28T06:23:19.630Z,10.61
2019-04-28T06:24:19.801Z,10.67
2019-04-28T06:25:19.971Z,10.64
2019-04-28T06:26:20.140Z,10.74
2019-04-28T06:27:20.313Z,10.79
2019-04-28T06:28:20.484Z,10.89
2019-04-28T06:29:20.654Z,10.84
2019-04-28T06:30:20.824Z,10.99
2019-04-28T06:31:20.997Z,10.97
2019-04-28T06:32:22.241Z,10.86
2019-04-28T06:33:21.323Z,10.93
2019-04-28T06:34:21.496Z,10.96
2019-04-28T06:35:21.667Z,10.96
2019-04-28T06:36:21.839Z,10.96
2019-04-28T06:37:22.007Z,11.12
2019-04-28T06:38:22.178Z,11.12
2019-04-28T06:39:22.348Z,11.02
2019-04-28T06:40:22.520Z,11.08
2019-04-28T06:41:22.699Z,11.02
2019-04-28T06:42:22.869Z,10.84
2019-04-28T06:43:23.041Z,10.82
2019-04-28T06:44:23.213Z,10.68
2019-04-28T06:45:23.385Z,10.60
2019-04-28T06:46:23.574Z,10.59
2019-04-28T06:47:23.728Z,10.53
2019-04-28T06:48:23.893Z,10.48
2019-04-28T06:49:24.067Z,10.41
2019-04-28T06:50:24.240Z,10.35
2019-04-28T06:51:24.405Z,10.30
2019-04-28T06:52:24.578Z,10.15
2019-04-28T06:53:24.748Z,10.15
2019-04-28T06:54:24.918Z,10.26
2019-04-28T06:55:25.090Z,10.35
2019-04-28T06:56:25.257Z,10.33
2019-04-28T06:57:25.459Z,10.37
2019-04-28T06:58:25.610Z,10.59
2019-04-28T06:59:25.782Z,10.40
2019-04-28T07:00:25.952Z,10.53
2019-04-28T07:01:26.125Z,10.61
2019-04-28T07:02:26.300Z,10.57
2019-04-28T07:03:26.472Z,10.72
2019-04-28T07:04:26.640Z,10.79
2019-04-28T07:05:26.810Z,10.86
2019-04-28T07:06:26.978Z,10.93
2019-04-28T07:07:27.149Z,11.00
2019-04-28T07:08:27.318Z,10.96
2019-04-28T07:09:27.562Z,10.93
2019-04-28T07:10:27.660Z,10.90
2019-04-28T07:11:27.844Z,10.84
2019-04-28T07:12:28.008Z,10.81
2019-04-28T07:13:28.178Z,10.71
2019-04-28T07:14:28.346Z,10.78
2019-04-28T07:15:28.515Z,10.81
2019-04-28T07:16:28.686Z,10.96
2019-04-28T07:17:28.855Z,11.05
2019-04-28T07:18:29.024Z,11.08
2019-04-28T07:19:29.198Z,11.08
2019-04-28T07:20:29.417Z,11.08
2019-04-28T07:21:29.564Z,11.14
2019-04-28T07:22:29.732Z,10.97
2019-04-28T07:23:29.908Z,10.84
2019-04-28T07:24:30.078Z,10.78
2019-04-28T07:25:30.247Z,10.86
2019-04-28T07:26:30.419Z,10.75
2019-04-28T07:27:30.588Z,10.69
2019-04-28T07:28:30.762Z,10.72
2019-04-28T07:29:30.928Z,10.67
2019-04-28T07:30:31.100Z,10.68
2019-04-28T07:31:31.271Z,10.74
2019-04-28T07:32:31.439Z,10.79
2019-04-28T07:33:36.158Z,10.93
2019-04-28T07:34:31.786Z,10.93
2019-04-28T07:35:31.960Z,10.99
2019-04-28T07:36:32.131Z,11.14
2019-04-28T07:37:32.300Z,11.32
2019-04-28T07:38:32.468Z,11.66
2019-04-28T07:39:32.631Z,11.60
2019-04-28T07:40:32.806Z,11.72
2019-04-28T07:41:32.970Z,11.77
2019-04-28T07:42:33.191Z,11.73
2019-04-28T07:43:33.304Z,11.55
2019-04-28T07:44:33.472Z,11.59
2019-04-28T07:45:33.641Z,11.59
2019-04-28T07:46:33.813Z,11.68
2019-04-28T07:47:33.982Z,11.78
2019-04-28T07:48:34.154Z,11.88
2019-04-28T07:49:34.324Z,11.69
2019-04-28T07:50:34.501Z,11.91
2019-04-28T07:51:34.672Z,12.00
2019-04-28T07:52:34.843Z,11.68
2019-04-28T07:53:35.020Z,11.48
2019-04-28T07:54:35.195Z,11.57
2019-04-28T07:55:35.379Z,11.57
2019-04-28T07:56:35.539Z,11.57
2019-04-28T07:57:35.709Z,11.68
2019-04-28T07:58:35.880Z,11.75
2019-04-28T07:59:36.051Z,11.84
2019-04-28T08:00:36.224Z,12.00
2019-04-28T08:01:36.395Z,11.80
2019-04-28T08:02:36.569Z,11.87
2019-04-28T08:03:48.775Z,11.97
2019-04-28T08:04:36.917Z,12.04
2019-04-28T08:05:37.087Z,11.83
2019-04-28T08:06:37.258Z,11.91
2019-04-28T08:07:37.431Z,11.81
2019-04-28T08:08:37.597Z,11.94
2019-04-28T08:09:37.773Z,12.07
2019-04-28T08:10:37.937Z,12.04
2019-04-28T08:11:38.128Z,12.09
2019-04-28T08:12:38.291Z,12.12
2019-04-28T08:13:38.462Z,12.21
2019-04-28T08:14:38.669Z,12.24
2019-04-28T08:15:38.816Z,12.21
2019-04-28T08:16:38.985Z,12.18
2019-04-28T08:17:39.158Z,12.06
2019-04-28T08:18:39.328Z,11.95
2019-04-28T08:19:39.529Z,11.87
2019-04-28T08:20:39.670Z,12.03
2019-04-28T08:21:39.845Z,12.06
2019-04-28T08:22:40.017Z,12.07
2019-04-28T08:23:46.900Z,12.04
2019-04-28T08:24:40.352Z,12.20
2019-04-28T08:25:40.525Z,12.54
2019-04-28T08:26:40.698Z,12.70
2019-04-28T08:27:40.869Z,12.75
2019-04-28T08:28:41.040Z,12.95
2019-04-28T08:29:41.209Z,13.38
2019-04-28T08:30:41.382Z,13.75
2019-04-28T08:31:41.554Z,14.53
2019-04-28T08:32:41.728Z,14.48
2019-04-28T08:33:41.899Z,14.84
2019-04-28T08:34:42.070Z,14.68
2019-04-28T08:35:42.242Z,14.40
2019-04-28T08:36:42.413Z,14.29
2019-04-28T08:37:42.578Z,13.81
2019-04-28T08:38:42.748Z,13.83
2019-04-28T08:39:42.922Z,13.72
2019-04-28T08:40:43.095Z,13.53
2019-04-28T08:41:43.266Z,13.19
2019-04-28T08:42:43.438Z,12.83
2019-04-28T08:43:43.611Z,12.62
2019-04-28T08:44:43.794Z,12.62
2019-04-28T08:45:43.952Z,12.62
2019-04-28T08:46:44.128Z,12.40
2019-04-28T08:47:44.296Z,12.54
2019-04-28T08:48:44.469Z,12.70
2019-04-28T08:49:44.641Z,13.05
2019-04-28T08:50:44.829Z,13.83
2019-04-28T08:51:44.999Z,14.48
2019-04-28T08:52:45.171Z,14.88
2019-04-28T08:53:45.344Z,15.58
2019-04-28T08:54:45.512Z,16.01
2019-04-28T08:55:45.687Z,16.08
2019-04-28T08:56:45.856Z,15.92
2019-04-28T08:57:46.037Z,16.09
2019-04-28T08:58:46.208Z,16.61
2019-04-28T08:59:46.384Z,16.54
2019-04-28T09:00:46.559Z,16.04
2019-04-28T09:01:46.732Z,15.61
2019-04-28T09:02:46.902Z,15.82
2019-04-28T09:03:47.073Z,16.20
2019-04-28T09:04:47.247Z,16.53
2019-04-28T09:05:47.423Z,16.84
2019-04-28T09:06:47.593Z,17.01
2019-04-28T09:07:47.764Z,16.91
2019-04-28T09:08:47.936Z,16.83
2019-04-28T09:09:48.109Z,16.65
2019-04-28T09:10:48.280Z,16.61
2019-04-28T09:11:48.471Z,16.93
2019-04-28T09:12:48.628Z,16.81
2019-04-28T09:13:48.801Z,17.22
2019-04-28T09:14:48.976Z,17.41
2019-04-28T09:15:49.144Z,17.24
2019-04-28T09:16:49.324Z,16.46
2019-04-28T09:17:49.491Z,16.02
2019-04-28T09:18:49.653Z,15.68
2019-04-28T09:19:49.868Z,15.14
2019-04-28T09:20:50.013Z,15.09
2019-04-28T09:21:50.187Z,14.97
2019-04-28T09:22:50.359Z,15.03
2019-04-28T09:23:50.530Z,14.94
2019-04-28T09:24:50.701Z,15.19
2019-04-28T09:25:50.873Z,15.10
2019-04-28T09:26:51.053Z,15.59
2019-04-28T09:27:51.222Z,16.02
2019-04-28T09:28:51.397Z,16.72
2019-04-28T09:29:51.574Z,17.19
2019-04-28T09:30:51.750Z,17.68
2019-04-28T09:31:51.918Z,17.79
2019-04-28T09:32:52.088Z,18.04
2019-04-28T09:33:52.264Z,18.25
2019-04-28T09:34:52.438Z,18.47
2019-04-28T09:35:52.614Z,18.86
2019-04-28T09:36:52.798Z,18.52
2019-04-28T09:37:52.966Z,18.60
2019-04-28T09:38:53.142Z,18.84
2019-04-28T09:39:53.316Z,19.22
2019-04-28T09:40:53.486Z,19.55
2019-04-28T09:41:53.664Z,19.62
2019-04-28T09:42:53.839Z,20.10
2019-04-28T09:43:54.016Z,20.66
2019-04-28T09:44:54.187Z,20.92
2019-04-28T09:45:54.363Z,20.72
2019-04-28T09:46:54.541Z,21.03
2019-04-28T09:47:54.719Z,20.88
2019-04-28T09:48:54.892Z,20.41
2019-04-28T09:49:55.069Z,19.62
2019-04-28T09:50:55.243Z,18.98
2019-04-28T09:51:55.420Z,18.63
2019-04-28T09:52:55.596Z,18.05
2019-04-28T09:53:55.780Z,17.56
2019-04-28T09:54:55.946Z,17.04
2019-04-28T09:55:56.123Z,16.69
2019-04-28T09:56:57.211Z,16.39
2019-04-28T09:57:56.477Z,16.01
2019-04-28T09:58:56.667Z,15.94
2019-04-28T09:59:56.841Z,15.95
2019-04-28T10:00:57.017Z,15.84
2019-04-28T10:01:57.188Z,15.58
2019-04-28T10:02:57.364Z,15.62
2019-04-28T10:03:57.538Z,15.61
2019-04-28T10:04:57.715Z,15.65
2019-04-28T10:05:57.886Z,15.61
2019-04-28T10:06:58.062Z,15.57
2019-04-28T10:07:58.240Z,15.62
2019-04-28T10:08:58.410Z,15.61
2019-04-28T10:09:58.588Z,15.47
2019-04-28T10:10:58.764Z,14.94
2019-04-28T10:11:58.939Z,14.62
2019-04-28T10:12:59.111Z,14.60
2019-04-28T10:13:59.288Z,14.53
2019-04-28T10:14:59.473Z,14.63
2019-04-28T10:15:59.642Z,14.62
2019-04-28T10:16:59.818Z,14.58
2019-04-28T10:17:59.992Z,14.78
2019-04-28T10:19:00.175Z,14.72
2019-04-28T10:20:00.348Z,14.81
2019-04-28T10:21:00.524Z,14.84
2019-04-28T10:22:00.702Z,14.84
2019-04-28T10:23:00.875Z,14.97
2019-04-28T10:24:01.049Z,14.72
2019-04-28T10:25:01.224Z,14.63
2019-04-28T10:26:01.396Z,14.62
2019-04-28T10:27:01.575Z,14.59
2019-04-28T10:28:01.743Z,14.59
2019-04-28T10:29:01.916Z,14.44
2019-04-28T10:30:02.101Z,14.44
2019-04-28T10:31:02.271Z,14.10
2019-04-28T10:32:02.445Z,14.10
2019-04-28T10:33:02.624Z,14.08
2019-04-28T10:34:02.805Z,14.17
2019-04-28T10:35:02.978Z,14.17
2019-04-28T10:36:03.150Z,13.81
2019-04-28T10:37:03.321Z,13.89
2019-04-28T10:38:03.497Z,14.03
2019-04-28T10:39:03.671Z,13.97
2019-04-28T10:40:03.844Z,13.78
2019-04-28T10:41:04.021Z,13.83
2019-04-28T10:42:04.193Z,13.95
2019-04-28T10:43:04.365Z,13.85
2019-04-28T10:44:04.538Z,13.83
2019-04-28T10:45:04.710Z,13.74
2019-04-28T10:46:04.886Z,13.92
2019-04-28T10:47:05.060Z,13.96
2019-04-28T10:48:05.228Z,13.71
2019-04-28T10:49:05.433Z,13.85
2019-04-28T10:50:05.589Z,13.96
2019-04-28T10:51:05.766Z,14.10
2019-04-28T10:52:05.935Z,14.04
2019-04-28T10:53:06.109Z,14.22
2019-04-28T10:54:06.294Z,14.23
2019-04-28T10:55:06.457Z,14.12
2019-04-28T10:56:06.690Z,14.05
2019-04-28T10:57:06.809Z,14.04
2019-04-28T10:58:06.985Z,14.07
2019-04-28T10:59:07.153Z,14.04
2019-04-28T11:00:07.325Z,13.81
2019-04-28T11:01:07.501Z,13.87
2019-04-28T11:02:07.672Z,13.87
2019-04-28T11:03:07.846Z,13.89
2019-04-28T11:04:08.018Z,14.00
2019-04-28T11:05:09.102Z,13.86
2019-04-28T11:06:08.362Z,13.81
2019-04-28T11:07:08.538Z,13.86
2019-04-28T11:08:08.709Z,13.85
2019-04-28T11:09:08.884Z,13.85
2019-04-28T11:10:09.056Z,13.71
2019-04-28T11:11:09.230Z,13.83
2019-04-28T11:12:09.402Z,13.63
2019-04-28T11:13:09.576Z,13.53
2019-04-28T11:14:09.753Z,13.52
2019-04-28T11:15:09.928Z,13.30
2019-04-28T11:16:10.097Z,13.44
2019-04-28T11:17:10.270Z,13.39
2019-04-28T11:18:10.442Z,13.38
2019-04-28T11:19:10.616Z,13.50
2019-04-28T11:20:10.790Z,13.50
2019-04-28T11:21:10.969Z,13.52
2019-04-28T11:22:11.138Z,13.54
2019-04-28T11:23:11.319Z,13.42
2019-04-28T11:24:11.486Z,13.30
2019-04-28T11:25:11.658Z,13.33
2019-04-28T11:26:11.829Z,13.27
2019-04-28T11:27:12.007Z,13.35
2019-04-28T11:28:12.177Z,13.37
2019-04-28T11:29:12.353Z,13.37
2019-04-28T11:30:12.524Z,13.22
2019-04-28T11:31:12.698Z,13.13
2019-04-28T11:32:12.873Z,13.11
2019-04-28T11:33:13.056Z,13.19
2019-04-28T11:34:13.215Z,13.05
2019-04-28T11:35:21.225Z,13.01
2019-04-28T11:36:13.561Z,12.94
2019-04-28T11:37:13.723Z,12.97
2019-04-28T11:38:13.897Z,13.03
2019-04-28T11:39:14.064Z,13.11
2019-04-28T11:40:14.256Z,12.98
2019-04-28T11:41:14.436Z,12.90
2019-04-28T11:42:14.603Z,12.75
2019-04-28T11:43:14.774Z,12.87
2019-04-28T11:44:14.965Z,12.70
2019-04-28T11:45:15.120Z,12.72
2019-04-28T11:46:15.290Z,12.58
2019-04-28T11:47:15.457Z,12.68
2019-04-28T11:48:15.623Z,12.65
2019-04-28T11:50:47.878Z,12.64
2019-04-28T11:51:48.026Z,12.57
2019-04-28T11:52:48.200Z,12.36
2019-04-28T11:53:48.374Z,12.17
2019-04-28T11:54:48.549Z,12.09
2019-04-28T11:55:48.718Z,12.06
2019-04-28T11:56:48.890Z,12.00
2019-04-28T11:57:49.062Z,11.87
2019-04-28T11:58:49.235Z,11.54
2019-04-28T11:59:49.409Z,11.41
2019-04-28T12:00:49.580Z,11.29
2019-04-28T12:01:49.748Z,11.35
2019-04-28T12:02:49.923Z,11.41
2019-04-28T12:03:50.095Z,11.41
2019-04-28T12:04:50.267Z,11.32
2019-04-28T12:05:50.439Z,11.22
2019-04-28T12:06:50.647Z,11.29
2019-04-28T12:07:50.783Z,11.30
2019-04-28T12:08:50.949Z,11.19
2019-04-28T12:10:03.366Z,11.15
2019-04-28T12:10:51.289Z,11.19
2019-04-28T12:11:51.459Z,11.27
2019-04-28T12:12:51.631Z,11.22
2019-04-28T12:13:51.812Z,11.17
2019-04-28T12:14:51.976Z,11.11
2019-04-28T12:15:52.149Z,10.90
2019-04-28T12:16:52.322Z,10.97
2019-04-28T12:17:52.494Z,10.89
2019-04-28T12:18:52.676Z,10.87
2019-04-28T12:19:52.845Z,10.78
2019-04-28T12:20:53.017Z,10.82
2019-04-28T12:21:53.187Z,10.76
2019-04-28T12:22:53.367Z,10.75
2019-04-28T12:23:53.545Z,10.86
2019-04-28T12:24:53.708Z,10.82
2019-04-28T12:25:53.879Z,10.72
2019-04-28T12:26:54.048Z,10.81
2019-04-28T12:27:54.223Z,10.86
2019-04-28T12:28:54.397Z,10.94
2019-04-28T12:29:54.597Z,10.94
2019-04-28T12:30:54.770Z,10.92
2019-04-28T12:31:54.941Z,10.96
2019-04-28T12:32:55.112Z,10.79
2019-04-28T12:33:55.291Z,10.79
2019-04-28T12:34:55.463Z,10.78
2019-04-28T12:35:55.638Z,10.92
2019-04-28T12:36:55.809Z,10.75
2019-04-28T12:37:55.980Z,10.75
2019-04-28T12:38:56.154Z,10.75
2019-04-28T12:39:56.326Z,10.78
2019-04-28T12:40:56.498Z,10.69
2019-04-28T12:41:56.669Z,10.76
2019-04-28T12:42:56.843Z,10.86
2019-04-28T12:43:57.034Z,10.99
2019-04-28T12:44:57.185Z,11.14
2019-04-28T12:45:57.360Z,11.23
2019-04-28T12:46:57.533Z,11.30
2019-04-28T12:47:57.706Z,11.45
2019-04-28T12:48:57.877Z,11.45
2019-04-28T12:49:58.047Z,11.50
2019-04-28T12:50:58.219Z,11.54
2019-04-28T12:51:58.387Z,11.57
2019-04-28T12:52:58.558Z,11.62
2019-04-28T12:53:58.729Z,11.62
2019-04-28T12:54:58.902Z,11.73
2019-04-28T12:55:59.075Z,11.72
2019-04-28T12:56:59.245Z,11.70
2019-04-28T12:57:59.417Z,11.94
2019-04-28T12:58:59.591Z,11.97
2019-04-28T12:59:59.765Z,12.18
2019-04-28T13:00:59.931Z,12.29
2019-04-28T13:02:00.105Z,12.39
2019-04-28T13:03:00.284Z,12.53
2019-04-28T13:04:00.458Z,12.65
2019-04-28T13:05:00.629Z,12.70
2019-04-28T13:06:05.362Z,12.73
2019-04-28T13:07:00.972Z,12.83
2019-04-28T13:08:01.146Z,13.03
2019-04-28T13:09:01.316Z,13.15
2019-04-28T13:10:01.490Z,13.23
2019-04-28T13:11:01.661Z,13.41
2019-04-28T13:12:01.833Z,13.57
2019-04-28T13:13:02.003Z,13.68
2019-04-28T13:14:02.176Z,13.71
2019-04-28T13:15:02.349Z,13.93
2019-04-28T13:16:02.520Z,14.05
2019-04-28T13:17:02.694Z,14.33
2019-04-28T13:18:02.861Z,14.53
2019-04-28T13:19:03.034Z,15.02
2019-04-28T13:20:03.211Z,15.73
2019-04-28T13:21:03.382Z,16.87
2019-04-28T13:22:05.520Z,17.82
2019-04-28T13:23:03.725Z,17.76
2019-04-28T13:24:03.899Z,17.36
2019-04-28T13:25:04.071Z,17.33
2019-04-28T13:26:04.276Z,17.29
2019-04-28T13:27:04.415Z,16.94
2019-04-28T13:28:04.589Z,17.05
2019-04-28T13:29:04.761Z,17.85
2019-04-28T13:30:04.934Z,18.65
2019-04-28T13:31:05.109Z,19.48
2019-04-28T13:32:05.284Z,20.06
2019-04-28T13:33:05.460Z,20.63
2019-04-28T13:34:05.633Z,20.52
2019-04-28T13:35:05.805Z,20.22
2019-04-28T13:36:14.713Z,20.74
2019-04-28T13:37:06.190Z,21.48
2019-04-28T13:38:06.387Z,21.95
2019-04-28T13:39:06.519Z,21.42
2019-04-28T13:40:06.671Z,20.77
2019-04-28T13:41:06.848Z,20.77
2019-04-28T13:42:07.025Z,21.18
2019-04-28T13:43:07.202Z,21.50
2019-04-28T13:44:07.376Z,22.07
2019-04-28T13:45:07.554Z,22.39
2019-04-28T13:46:07.729Z,22.59
2019-04-28T13:47:07.907Z,22.94
2019-04-28T13:48:08.096Z,23.12
2019-04-28T13:49:08.264Z,23.37
2019-04-28T13:50:08.445Z,23.34
2019-04-28T13:51:08.620Z,23.31
2019-04-28T13:52:08.800Z,22.29
2019-04-28T13:53:08.978Z,21.46
2019-04-28T13:54:09.165Z,20.95
2019-04-28T13:55:09.340Z,21.36
2019-04-28T13:56:09.508Z,21.79
2019-04-28T13:57:09.694Z,22.33
2019-04-28T13:58:09.862Z,22.15
2019-04-28T13:59:10.044Z,22.51
2019-04-28T14:00:10.219Z,22.93
2019-04-28T14:01:10.393Z,22.07
2019-04-28T14:02:10.570Z,21.37
2019-04-28T14:03:10.774Z,21.27
2019-04-28T14:04:10.920Z,21.80
2019-04-28T14:05:11.098Z,22.11
2019-04-28T14:06:11.278Z,22.15
2019-04-28T14:07:11.453Z,22.65
2019-04-28T14:08:11.637Z,23.15
2019-04-28T14:09:11.811Z,23.81
2019-04-28T14:10:12.004Z,23.76
2019-04-28T14:11:12.246Z,22.98
2019-04-28T14:12:12.410Z,22.81
2019-04-28T14:13:12.549Z,22.59
2019-04-28T14:14:12.727Z,21.82
2019-04-28T14:15:12.900Z,20.78
2019-04-28T14:16:13.098Z,20.39
2019-04-28T14:17:13.258Z,21.09
2019-04-28T14:18:13.441Z,21.60
2019-04-28T14:19:13.627Z,22.08
2019-04-28T14:20:13.806Z,22.11
2019-04-28T14:21:13.979Z,22.47
2019-04-28T14:22:14.157Z,22.85
2019-04-28T14:23:14.339Z,23.18
2019-04-28T14:24:14.519Z,23.51
2019-04-28T14:25:14.696Z,23.77
2019-04-28T14:26:14.876Z,23.73
2019-04-28T14:27:15.056Z,23.86
2019-04-28T14:28:15.277Z,23.96
2019-04-28T14:29:15.407Z,24.13
2019-04-28T14:30:15.577Z,24.01
2019-04-28T14:31:15.822Z,23.86
2019-04-28T14:32:15.932Z,23.51
2019-04-28T14:33:16.670Z,23.21
2019-04-28T14:34:16.291Z,23.32
2019-04-28T14:35:16.475Z,22.98
2019-04-28T14:36:16.649Z,22.70
2019-04-28T14:37:16.845Z,22.99
2019-04-28T14:38:17.024Z,22.38
2019-04-28T14:39:17.192Z,22.59
2019-04-28T14:40:17.367Z,22.57
2019-04-28T14:41:17.550Z,22.93
2019-04-28T14:42:17.775Z,23.20
2019-04-28T14:43:17.907Z,23.20
2019-04-28T14:44:18.114Z,23.08
2019-04-28T14:45:18.264Z,23.39
2019-04-28T14:46:18.447Z,23.59
2019-04-28T14:47:18.657Z,23.55
2019-04-28T14:48:18.804Z,23.58
2019-04-28T14:49:18.981Z,23.76
2019-04-28T14:50:19.162Z,23.92
2019-04-28T14:51:19.355Z,23.80
2019-04-28T14:52:19.530Z,23.74
2019-04-28T14:53:19.713Z,23.58
2019-04-28T14:54:19.893Z,23.77
2019-04-28T14:55:20.079Z,23.61
2019-04-28T14:56:20.321Z,23.68
2019-04-28T14:57:20.432Z,23.34
2019-04-28T14:58:20.678Z,22.93
2019-04-28T14:59:20.794Z,23.18
2019-04-28T15:00:20.970Z,23.32
2019-04-28T15:01:21.257Z,23.31
2019-04-28T15:02:21.349Z,23.50
2019-04-28T15:03:21.523Z,23.48
2019-04-28T15:04:21.703Z,23.71
2019-04-28T15:05:21.880Z,23.88
2019-04-28T15:06:22.099Z,24.01
2019-04-28T15:07:22.249Z,23.99
2019-04-28T15:08:22.426Z,24.24
2019-04-28T15:09:22.614Z,24.38
2019-04-28T15:10:22.786Z,24.01
2019-04-28T15:11:23.071Z,23.66
2019-04-28T15:12:23.158Z,23.37
2019-04-28T15:13:23.326Z,23.41
2019-04-28T15:14:23.568Z,23.55
2019-04-28T15:15:23.692Z,23.40
2019-04-28T15:16:23.919Z,23.65
2019-04-28T15:17:24.119Z,23.50
2019-04-28T15:18:24.239Z,23.40
2019-04-28T15:19:24.426Z,23.17
2019-04-28T15:20:24.596Z,23.02
2019-04-28T15:21:24.824Z,23.08
2019-04-28T15:22:24.974Z,23.21
2019-04-28T15:23:25.187Z,23.51
2019-04-28T15:24:25.312Z,23.69
2019-04-28T15:25:25.518Z,23.86
2019-04-28T15:26:25.674Z,23.83
2019-04-28T15:27:25.913Z,23.58
2019-04-28T15:28:26.024Z,23.34
2019-04-28T15:29:26.203Z,23.13
2019-04-28T15:30:26.379Z,22.98
2019-04-28T15:31:26.552Z,22.57
2019-04-28T15:32:27.522Z,22.43
2019-04-28T15:33:26.934Z,22.59
2019-04-28T15:34:27.098Z,22.57
2019-04-28T15:35:27.277Z,22.29
2019-04-28T15:36:27.462Z,22.28
2019-04-28T15:37:27.637Z,22.35
2019-04-28T15:38:27.821Z,22.50
2019-04-28T15:39:27.985Z,22.83
2019-04-28T15:40:28.152Z,23.06
2019-04-28T15:41:28.335Z,22.99
2019-04-28T15:42:28.510Z,22.98
2019-04-28T15:43:28.748Z,22.99
2019-04-28T15:44:28.847Z,22.88
2019-04-28T15:45:29.021Z,22.70
2019-04-28T15:46:29.210Z,22.59
2019-04-28T15:47:29.384Z,22.59
2019-04-28T15:48:29.562Z,22.75
2019-04-28T15:49:29.734Z,22.38
2019-04-28T15:50:29.912Z,22.13
2019-04-28T15:51:30.098Z,21.79
2019-04-28T15:52:30.271Z,21.52
2019-04-28T15:53:30.453Z,21.17
2019-04-28T15:54:30.637Z,20.72
2019-04-28T15:55:30.813Z,20.47
2019-04-28T15:56:30.991Z,20.44
2019-04-28T15:57:31.173Z,20.36
2019-04-28T15:58:31.352Z,20.41
2019-04-28T15:59:31.605Z,20.24
2019-04-28T16:00:31.708Z,19.85
2019-04-28T16:01:31.889Z,19.62
2019-04-28T16:02:32.069Z,19.22
2019-04-28T16:03:32.248Z,19.08
2019-04-28T16:04:32.434Z,18.84
2019-04-28T16:05:32.599Z,18.56
2019-04-28T16:06:32.778Z,18.13
2019-04-28T16:07:32.958Z,17.89
2019-04-28T16:08:33.138Z,17.76
2019-04-28T16:09:33.314Z,17.44
2019-04-28T16:10:33.504Z,17.30
2019-04-28T16:11:33.664Z,17.27
2019-04-28T16:12:33.843Z,17.19
2019-04-28T16:13:34.014Z,17.24
2019-04-28T16:14:34.196Z,17.04
2019-04-28T16:15:34.381Z,16.84
2019-04-28T16:16:34.545Z,16.83
2019-04-28T16:17:34.709Z,16.71
2019-04-28T16:18:34.896Z,16.69
2019-04-28T16:19:35.066Z,16.58
2019-04-28T16:20:35.242Z,16.54
2019-04-28T16:21:35.418Z,16.54
2019-04-28T16:22:35.597Z,16.50
2019-04-28T16:23:35.777Z,16.72
2019-04-28T16:24:35.950Z,16.84
2019-04-28T16:25:36.136Z,16.74
2019-04-28T16:26:36.304Z,16.81
2019-04-28T16:27:36.476Z,16.86
2019-04-28T16:28:36.648Z,16.84
2019-04-28T16:29:36.822Z,16.81
2019-04-28T16:30:36.997Z,16.58
2019-04-28T16:31:37.172Z,16.39
2019-04-28T16:32:37.341Z,16.35
2019-04-28T16:33:37.512Z,16.36
2019-04-28T16:34:37.696Z,16.35
2019-04-28T16:35:37.862Z,16.36
2019-04-28T16:36:38.033Z,16.50
2019-04-28T16:37:39.282Z,16.66
2019-04-28T16:38:38.382Z,16.57
2019-04-28T16:39:38.568Z,16.53
2019-04-28T16:40:38.732Z,16.42
2019-04-28T16:41:38.917Z,16.31
2019-04-28T16:42:39.083Z,16.31
2019-04-28T16:43:39.260Z,16.26
2019-04-28T16:44:39.430Z,16.17
2019-04-28T16:45:39.604Z,16.12
2019-04-28T16:46:39.778Z,16.00
2019-04-28T16:47:39.955Z,15.98
2019-04-28T16:48:40.130Z,15.91
2019-04-28T16:49:40.304Z,15.75
2019-04-28T16:50:40.479Z,15.65
2019-04-28T16:51:40.649Z,15.58
2019-04-28T16:52:40.824Z,15.31
2019-04-28T16:53:41.000Z,15.33
2019-04-28T16:54:41.172Z,15.22
2019-04-28T16:55:41.371Z,15.21
2019-04-28T16:56:41.520Z,15.36
2019-04-28T16:57:41.697Z,15.27
2019-04-28T16:58:41.869Z,15.29
2019-04-28T16:59:42.044Z,15.25
2019-04-28T17:00:42.218Z,15.24